sensor_id;sensor_type;location;lat;lon;timestamp;P1;durP1;ratioP1;P2;durP2;ratioP2
2724;SDS011;1370;52.596;13.112;2023-06-14T00:00:30;2.73;;;2.33;;
2724;SDS011;1370;52.596;13.112;2023-06-14T00:02:56;3.40;;;2.40;;
2724;SDS011;1370;52.596;13.112;2023-06-14T00:05:21;5.03;;;2.90;;
2724;SDS011;1370;52.596;13.112;2023-06-14T00:07:48;5.37;;;2.57;;
2724;SDS011;1370;52.596;13.112;2023-06-14T00:10:14;5.43;;;3.03;;
2724;SDS011;1370;52.596;13.112;2023-06-14T00:12:40;3.47;;;3.17;;
2724;SDS011;1370;52.596;13.112;2023-06-14T00:15:05;3.17;;;2.40;;
2724;SDS011;1370;52.596;13.112;2023-06-14T00:17:31;3.53;;;2.33;;
2724;SDS011;1370;52.596;13.112;2023-06-14T00:19:57;4.37;;;2.50;;
2724;SDS011;1370;52.596;13.112;2023-06-14T00:22:23;5.93;;;3.27;;
2724;SDS011;1370;52.596;13.112;2023-06-14T00:24:53;4.00;;;2.57;;
2724;SDS011;1370;52.596;13.112;2023-06-14T00:27:18;3.97;;;2.63;;
2724;SDS011;1370;52.596;13.112;2023-06-14T00:29:44;2.90;;;2.70;;
2724;SDS011;1370;52.596;13.112;2023-06-14T00:32:09;2.70;;;2.50;;
2724;SDS011;1370;52.596;13.112;2023-06-14T00:34:35;4.80;;;2.50;;
2724;SDS011;1370;52.596;13.112;2023-06-14T00:37:00;6.03;;;2.90;;
2724;SDS011;1370;52.596;13.112;2023-06-14T00:39:26;3.00;;;2.57;;
2724;SDS011;1370;52.596;13.112;2023-06-14T00:41:51;2.90;;;2.50;;
2724;SDS011;1370;52.596;13.112;2023-06-14T00:44:17;2.70;;;2.50;;
2724;SDS011;1370;52.596;13.112;2023-06-14T00:46:43;9.30;;;2.97;;
2724;SDS011;1370;52.596;13.112;2023-06-14T00:49:09;2.90;;;2.70;;
2724;SDS011;1370;52.596;13.112;2023-06-14T00:51:35;9.87;;;3.40;;
2724;SDS011;1370;52.596;13.112;2023-06-14T00:54:00;3.57;;;3.27;;
2724;SDS011;1370;52.596;13.112;2023-06-14T00:56:26;3.90;;;2.90;;
2724;SDS011;1370;52.596;13.112;2023-06-14T00:58:52;4.83;;;3.07;;
2724;SDS011;1370;52.596;13.112;2023-06-14T01:01:18;3.33;;;3.03;;
2724;SDS011;1370;52.596;13.112;2023-06-14T01:03:43;4.10;;;3.10;;
2724;SDS011;1370;52.596;13.112;2023-06-14T01:06:12;3.13;;;2.93;;
2724;SDS011;1370;52.596;13.112;2023-06-14T01:08:53;2.50;;;2.30;;
2724;SDS011;1370;52.596;13.112;2023-06-14T01:11:31;3.20;;;2.90;;
2724;SDS011;1370;52.596;13.112;2023-06-14T01:13:58;3.10;;;2.90;;
2724;SDS011;1370;52.596;13.112;2023-06-14T01:16:24;4.83;;;2.97;;
2724;SDS011;1370;52.596;13.112;2023-06-14T01:18:51;3.30;;;3.00;;
2724;SDS011;1370;52.596;13.112;2023-06-14T01:21:24;3.23;;;3.00;;
2724;SDS011;1370;52.596;13.112;2023-06-14T01:23:50;3.00;;;2.80;;
2724;SDS011;1370;52.596;13.112;2023-06-14T01:26:18;3.20;;;2.90;;
2724;SDS011;1370;52.596;13.112;2023-06-14T01:28:45;3.50;;;2.80;;
2724;SDS011;1370;52.596;13.112;2023-06-14T01:31:17;3.33;;;3.07;;
2724;SDS011;1370;52.596;13.112;2023-06-14T01:33:43;3.23;;;3.03;;
2724;SDS011;1370;52.596;13.112;2023-06-14T01:36:09;3.00;;;2.70;;
2724;SDS011;1370;52.596;13.112;2023-06-14T01:38:34;4.80;;;2.97;;
2724;SDS011;1370;52.596;13.112;2023-06-14T01:41:01;3.93;;;3.63;;
2724;SDS011;1370;52.596;13.112;2023-06-14T01:43:27;5.70;;;3.00;;
2724;SDS011;1370;52.596;13.112;2023-06-14T01:45:55;3.83;;;2.77;;
2724;SDS011;1370;52.596;13.112;2023-06-14T01:48:21;3.23;;;2.90;;
2724;SDS011;1370;52.596;13.112;2023-06-14T01:50:47;3.67;;;3.20;;
2724;SDS011;1370;52.596;13.112;2023-06-14T01:53:13;3.30;;;3.00;;
2724;SDS011;1370;52.596;13.112;2023-06-14T01:55:38;2.97;;;2.77;;
2724;SDS011;1370;52.596;13.112;2023-06-14T01:58:08;3.27;;;3.07;;
2724;SDS011;1370;52.596;13.112;2023-06-14T02:00:33;5.03;;;3.90;;
2724;SDS011;1370;52.596;13.112;2023-06-14T02:02:59;2.77;;;2.57;;
2724;SDS011;1370;52.596;13.112;2023-06-14T02:05:24;3.63;;;3.00;;
2724;SDS011;1370;52.596;13.112;2023-06-14T02:07:50;7.73;;;3.00;;
2724;SDS011;1370;52.596;13.112;2023-06-14T02:10:15;3.43;;;3.03;;
2724;SDS011;1370;52.596;13.112;2023-06-14T02:12:42;4.37;;;2.80;;
2724;SDS011;1370;52.596;13.112;2023-06-14T02:15:07;5.47;;;3.13;;
2724;SDS011;1370;52.596;13.112;2023-06-14T02:17:34;2.70;;;2.50;;
2724;SDS011;1370;52.596;13.112;2023-06-14T02:19:59;3.83;;;3.50;;
2724;SDS011;1370;52.596;13.112;2023-06-14T02:22:24;4.27;;;3.93;;
2724;SDS011;1370;52.596;13.112;2023-06-14T02:24:50;3.30;;;3.10;;
2724;SDS011;1370;52.596;13.112;2023-06-14T02:27:15;3.10;;;2.80;;
2724;SDS011;1370;52.596;13.112;2023-06-14T02:29:41;3.10;;;2.63;;
2724;SDS011;1370;52.596;13.112;2023-06-14T02:32:07;4.70;;;3.67;;
2724;SDS011;1370;52.596;13.112;2023-06-14T02:34:32;3.00;;;2.80;;
2724;SDS011;1370;52.596;13.112;2023-06-14T02:36:58;3.50;;;3.20;;
2724;SDS011;1370;52.596;13.112;2023-06-14T02:39:24;4.83;;;3.50;;
2724;SDS011;1370;52.596;13.112;2023-06-14T02:41:51;3.60;;;3.30;;
2724;SDS011;1370;52.596;13.112;2023-06-14T02:44:17;4.80;;;4.40;;
2724;SDS011;1370;52.596;13.112;2023-06-14T02:46:43;2.90;;;2.70;;
2724;SDS011;1370;52.596;13.112;2023-06-14T02:49:08;11.17;;;4.53;;
2724;SDS011;1370;52.596;13.112;2023-06-14T02:51:34;4.93;;;3.70;;
2724;SDS011;1370;52.596;13.112;2023-06-14T02:53:59;4.60;;;4.20;;
2724;SDS011;1370;52.596;13.112;2023-06-14T02:56:24;5.03;;;4.40;;
2724;SDS011;1370;52.596;13.112;2023-06-14T02:58:51;4.23;;;3.93;;
2724;SDS011;1370;52.596;13.112;2023-06-14T03:01:16;5.47;;;3.67;;
2724;SDS011;1370;52.596;13.112;2023-06-14T03:03:41;5.70;;;3.90;;
2724;SDS011;1370;52.596;13.112;2023-06-14T03:06:07;3.60;;;3.30;;
2724;SDS011;1370;52.596;13.112;2023-06-14T03:08:33;7.17;;;3.70;;
2724;SDS011;1370;52.596;13.112;2023-06-14T03:11:03;6.63;;;4.07;;
2724;SDS011;1370;52.596;13.112;2023-06-14T03:13:30;8.30;;;4.27;;
2724;SDS011;1370;52.596;13.112;2023-06-14T03:15:57;3.63;;;3.40;;
2724;SDS011;1370;52.596;13.112;2023-06-14T03:18:22;3.83;;;3.53;;
2724;SDS011;1370;52.596;13.112;2023-06-14T03:20:47;4.70;;;4.30;;
2724;SDS011;1370;52.596;13.112;2023-06-14T03:23:13;7.50;;;4.20;;
2724;SDS011;1370;52.596;13.112;2023-06-14T03:25:38;5.27;;;3.90;;
2724;SDS011;1370;52.596;13.112;2023-06-14T03:28:05;4.77;;;4.30;;
2724;SDS011;1370;52.596;13.112;2023-06-14T03:30:30;14.67;;;5.90;;
2724;SDS011;1370;52.596;13.112;2023-06-14T03:32:56;24.60;;;9.50;;
2724;SDS011;1370;52.596;13.112;2023-06-14T03:35:22;17.73;;;4.97;;
2724;SDS011;1370;52.596;13.112;2023-06-14T03:37:48;12.50;;;5.63;;
2724;SDS011;1370;52.596;13.112;2023-06-14T03:40:15;15.63;;;5.07;;
2724;SDS011;1370;52.596;13.112;2023-06-14T03:42:41;5.03;;;4.20;;
2724;SDS011;1370;52.596;13.112;2023-06-14T03:45:06;5.93;;;5.33;;
2724;SDS011;1370;52.596;13.112;2023-06-14T03:47:32;7.37;;;4.97;;
2724;SDS011;1370;52.596;13.112;2023-06-14T03:49:57;4.27;;;3.97;;
2724;SDS011;1370;52.596;13.112;2023-06-14T03:52:23;4.40;;;4.00;;
2724;SDS011;1370;52.596;13.112;2023-06-14T03:54:48;9.70;;;5.50;;
2724;SDS011;1370;52.596;13.112;2023-06-14T03:57:14;6.30;;;5.03;;
2724;SDS011;1370;52.596;13.112;2023-06-14T03:59:39;5.53;;;4.20;;
2724;SDS011;1370;52.596;13.112;2023-06-14T04:02:06;5.83;;;4.87;;
2724;SDS011;1370;52.596;13.112;2023-06-14T04:04:31;5.30;;;4.80;;
2724;SDS011;1370;52.596;13.112;2023-06-14T04:06:57;9.83;;;3.80;;
2724;SDS011;1370;52.596;13.112;2023-06-14T04:09:23;6.03;;;4.50;;
2724;SDS011;1370;52.596;13.112;2023-06-14T04:11:50;6.70;;;5.90;;
2724;SDS011;1370;52.596;13.112;2023-06-14T04:14:18;6.47;;;5.37;;
2724;SDS011;1370;52.596;13.112;2023-06-14T04:16:44;4.70;;;4.10;;
2724;SDS011;1370;52.596;13.112;2023-06-14T04:19:11;5.20;;;4.80;;
2724;SDS011;1370;52.596;13.112;2023-06-14T04:21:36;6.07;;;4.07;;
2724;SDS011;1370;52.596;13.112;2023-06-14T04:24:01;6.73;;;5.10;;
2724;SDS011;1370;52.596;13.112;2023-06-14T04:26:27;6.27;;;4.90;;
2724;SDS011;1370;52.596;13.112;2023-06-14T04:28:58;8.83;;;5.30;;
2724;SDS011;1370;52.596;13.112;2023-06-14T04:31:26;9.23;;;5.27;;
2724;SDS011;1370;52.596;13.112;2023-06-14T04:33:58;6.93;;;6.17;;
2724;SDS011;1370;52.596;13.112;2023-06-14T04:36:24;6.27;;;5.63;;
2724;SDS011;1370;52.596;13.112;2023-06-14T04:38:49;12.00;;;6.17;;
2724;SDS011;1370;52.596;13.112;2023-06-14T04:41:19;8.20;;;7.43;;
2724;SDS011;1370;52.596;13.112;2023-06-14T04:43:44;7.10;;;5.77;;
2724;SDS011;1370;52.596;13.112;2023-06-14T04:46:13;10.80;;;6.90;;
2724;SDS011;1370;52.596;13.112;2023-06-14T04:48:40;8.07;;;7.27;;
2724;SDS011;1370;52.596;13.112;2023-06-14T04:51:06;7.53;;;6.83;;
2724;SDS011;1370;52.596;13.112;2023-06-14T04:53:32;6.80;;;5.40;;
2724;SDS011;1370;52.596;13.112;2023-06-14T04:55:57;20.43;;;7.83;;
2724;SDS011;1370;52.596;13.112;2023-06-14T04:58:23;13.50;;;8.27;;
2724;SDS011;1370;52.596;13.112;2023-06-14T05:00:48;6.70;;;6.13;;
2724;SDS011;1370;52.596;13.112;2023-06-14T05:03:14;8.70;;;7.17;;
2724;SDS011;1370;52.596;13.112;2023-06-14T05:05:40;6.80;;;6.20;;
2724;SDS011;1370;52.596;13.112;2023-06-14T05:08:05;9.20;;;6.00;;
2724;SDS011;1370;52.596;13.112;2023-06-14T05:10:31;10.50;;;7.53;;
2724;SDS011;1370;52.596;13.112;2023-06-14T05:12:56;12.67;;;6.87;;
2724;SDS011;1370;52.596;13.112;2023-06-14T05:15:21;13.63;;;9.10;;
2724;SDS011;1370;52.596;13.112;2023-06-14T05:17:50;9.73;;;7.43;;
2724;SDS011;1370;52.596;13.112;2023-06-14T05:20:19;10.20;;;6.40;;
2724;SDS011;1370;52.596;13.112;2023-06-14T05:22:45;10.03;;;8.13;;
2724;SDS011;1370;52.596;13.112;2023-06-14T05:25:10;10.93;;;7.53;;
2724;SDS011;1370;52.596;13.112;2023-06-14T05:27:35;11.03;;;8.50;;
2724;SDS011;1370;52.596;13.112;2023-06-14T05:30:02;9.67;;;6.13;;
2724;SDS011;1370;52.596;13.112;2023-06-14T05:32:28;10.23;;;6.53;;
2724;SDS011;1370;52.596;13.112;2023-06-14T05:34:54;10.63;;;6.97;;
2724;SDS011;1370;52.596;13.112;2023-06-14T05:37:19;9.40;;;6.37;;
2724;SDS011;1370;52.596;13.112;2023-06-14T05:39:44;8.93;;;6.23;;
2724;SDS011;1370;52.596;13.112;2023-06-14T05:42:10;9.90;;;6.70;;
2724;SDS011;1370;52.596;13.112;2023-06-14T05:44:35;20.13;;;7.53;;
2724;SDS011;1370;52.596;13.112;2023-06-14T05:47:01;20.73;;;7.77;;
2724;SDS011;1370;52.596;13.112;2023-06-14T05:49:26;11.00;;;7.50;;
2724;SDS011;1370;52.596;13.112;2023-06-14T05:51:51;8.10;;;6.70;;
2724;SDS011;1370;52.596;13.112;2023-06-14T05:54:17;10.37;;;7.30;;
2724;SDS011;1370;52.596;13.112;2023-06-14T05:56:42;11.33;;;6.80;;
2724;SDS011;1370;52.596;13.112;2023-06-14T05:59:07;11.00;;;6.10;;
2724;SDS011;1370;52.596;13.112;2023-06-14T06:01:32;6.77;;;6.17;;
2724;SDS011;1370;52.596;13.112;2023-06-14T06:04:01;10.90;;;6.83;;
2724;SDS011;1370;52.596;13.112;2023-06-14T06:06:26;15.80;;;7.90;;
2724;SDS011;1370;52.596;13.112;2023-06-14T06:08:52;8.93;;;7.20;;
2724;SDS011;1370;52.596;13.112;2023-06-14T06:11:17;10.10;;;6.20;;
2724;SDS011;1370;52.596;13.112;2023-06-14T06:13:42;9.47;;;6.10;;
2724;SDS011;1370;52.596;13.112;2023-06-14T06:16:08;6.33;;;5.73;;
2724;SDS011;1370;52.596;13.112;2023-06-14T06:18:33;11.53;;;6.07;;
2724;SDS011;1370;52.596;13.112;2023-06-14T06:20:59;9.13;;;7.07;;
2724;SDS011;1370;52.596;13.112;2023-06-14T06:23:24;14.43;;;9.80;;
2724;SDS011;1370;52.596;13.112;2023-06-14T06:25:50;10.40;;;7.00;;
2724;SDS011;1370;52.596;13.112;2023-06-14T06:28:15;16.20;;;8.50;;
2724;SDS011;1370;52.596;13.112;2023-06-14T06:30:40;13.73;;;6.87;;
2724;SDS011;1370;52.596;13.112;2023-06-14T06:33:06;8.90;;;6.50;;
2724;SDS011;1370;52.596;13.112;2023-06-14T06:35:31;6.47;;;5.93;;
2724;SDS011;1370;52.596;13.112;2023-06-14T06:37:58;12.70;;;5.50;;
2724;SDS011;1370;52.596;13.112;2023-06-14T06:40:23;10.13;;;6.70;;
2724;SDS011;1370;52.596;13.112;2023-06-14T06:42:48;11.63;;;6.90;;
2724;SDS011;1370;52.596;13.112;2023-06-14T06:45:15;9.93;;;6.93;;
2724;SDS011;1370;52.596;13.112;2023-06-14T06:47:40;11.63;;;7.30;;
2724;SDS011;1370;52.596;13.112;2023-06-14T06:50:05;15.43;;;6.57;;
2724;SDS011;1370;52.596;13.112;2023-06-14T06:52:32;9.60;;;6.47;;
2724;SDS011;1370;52.596;13.112;2023-06-14T06:54:57;9.63;;;7.03;;
2724;SDS011;1370;52.596;13.112;2023-06-14T06:57:23;9.23;;;6.00;;
2724;SDS011;1370;52.596;13.112;2023-06-14T06:59:48;10.33;;;6.73;;
2724;SDS011;1370;52.596;13.112;2023-06-14T07:02:14;6.47;;;5.87;;
2724;SDS011;1370;52.596;13.112;2023-06-14T07:04:40;8.00;;;5.90;;
2724;SDS011;1370;52.596;13.112;2023-06-14T07:07:05;9.77;;;5.80;;
2724;SDS011;1370;52.596;13.112;2023-06-14T07:09:30;6.13;;;5.57;;
2724;SDS011;1370;52.596;13.112;2023-06-14T07:11:55;7.47;;;6.90;;
2724;SDS011;1370;52.596;13.112;2023-06-14T07:14:21;12.20;;;6.00;;
2724;SDS011;1370;52.596;13.112;2023-06-14T07:16:48;7.40;;;5.90;;
2724;SDS011;1370;52.596;13.112;2023-06-14T07:19:14;7.70;;;6.23;;
2724;SDS011;1370;52.596;13.112;2023-06-14T07:21:39;9.77;;;5.93;;
2724;SDS011;1370;52.596;13.112;2023-06-14T07:24:05;11.77;;;5.93;;
2724;SDS011;1370;52.596;13.112;2023-06-14T07:26:31;11.60;;;6.30;;
2724;SDS011;1370;52.596;13.112;2023-06-14T07:28:57;6.83;;;6.00;;
2724;SDS011;1370;52.596;13.112;2023-06-14T07:31:22;8.90;;;6.73;;
2724;SDS011;1370;52.596;13.112;2023-06-14T07:33:47;6.63;;;5.93;;
2724;SDS011;1370;52.596;13.112;2023-06-14T07:36:12;8.10;;;5.50;;
2724;SDS011;1370;52.596;13.112;2023-06-14T07:38:38;6.20;;;5.70;;
2724;SDS011;1370;52.596;13.112;2023-06-14T07:41:05;8.83;;;5.53;;
2724;SDS011;1370;52.596;13.112;2023-06-14T07:43:30;5.87;;;5.30;;
2724;SDS011;1370;52.596;13.112;2023-06-14T07:45:55;7.80;;;7.10;;
2724;SDS011;1370;52.596;13.112;2023-06-14T07:48:22;8.53;;;6.30;;
2724;SDS011;1370;52.596;13.112;2023-06-14T07:50:47;9.67;;;6.00;;
2724;SDS011;1370;52.596;13.112;2023-06-14T07:53:12;8.87;;;6.83;;
2724;SDS011;1370;52.596;13.112;2023-06-14T07:55:37;15.00;;;6.50;;
2724;SDS011;1370;52.596;13.112;2023-06-14T07:58:06;7.73;;;6.13;;
2724;SDS011;1370;52.596;13.112;2023-06-14T08:00:32;7.80;;;6.30;;
2724;SDS011;1370;52.596;13.112;2023-06-14T08:02:57;8.37;;;6.13;;
2724;SDS011;1370;52.596;13.112;2023-06-14T08:05:24;6.63;;;5.67;;
2724;SDS011;1370;52.596;13.112;2023-06-14T08:07:50;6.03;;;5.47;;
2724;SDS011;1370;52.596;13.112;2023-06-14T08:10:16;7.20;;;5.47;;
2724;SDS011;1370;52.596;13.112;2023-06-14T08:12:41;6.20;;;5.57;;
2724;SDS011;1370;52.596;13.112;2023-06-14T08:15:06;5.73;;;5.27;;
2724;SDS011;1370;52.596;13.112;2023-06-14T08:17:32;5.57;;;4.73;;
2724;SDS011;1370;52.596;13.112;2023-06-14T08:19:57;5.23;;;4.73;;
2724;SDS011;1370;52.596;13.112;2023-06-14T08:22:23;6.07;;;5.53;;
2724;SDS011;1370;52.596;13.112;2023-06-14T08:24:49;4.80;;;4.60;;
2724;SDS011;1370;52.596;13.112;2023-06-14T08:27:15;7.90;;;4.23;;
2724;SDS011;1370;52.596;13.112;2023-06-14T08:29:40;10.33;;;4.73;;
2724;SDS011;1370;52.596;13.112;2023-06-14T08:32:06;6.93;;;4.83;;
2724;SDS011;1370;52.596;13.112;2023-06-14T08:34:31;7.50;;;4.20;;
2724;SDS011;1370;52.596;13.112;2023-06-14T08:36:57;6.90;;;5.50;;
2724;SDS011;1370;52.596;13.112;2023-06-14T08:39:22;18.13;;;4.80;;
2724;SDS011;1370;52.596;13.112;2023-06-14T08:41:47;4.97;;;4.43;;
2724;SDS011;1370;52.596;13.112;2023-06-14T08:44:13;5.23;;;4.83;;
2724;SDS011;1370;52.596;13.112;2023-06-14T08:46:42;5.30;;;4.77;;
2724;SDS011;1370;52.596;13.112;2023-06-14T08:49:07;4.70;;;4.20;;
2724;SDS011;1370;52.596;13.112;2023-06-14T08:51:33;12.93;;;4.30;;
2724;SDS011;1370;52.596;13.112;2023-06-14T08:54:01;4.90;;;4.40;;
2724;SDS011;1370;52.596;13.112;2023-06-14T08:56:29;5.53;;;5.03;;
2724;SDS011;1370;52.596;13.112;2023-06-14T08:58:55;5.70;;;5.00;;
2724;SDS011;1370;52.596;13.112;2023-06-14T09:01:21;5.87;;;4.77;;
2724;SDS011;1370;52.596;13.112;2023-06-14T09:03:48;8.13;;;5.30;;
2724;SDS011;1370;52.596;13.112;2023-06-14T09:06:13;9.03;;;5.57;;
2724;SDS011;1370;52.596;13.112;2023-06-14T09:08:41;5.07;;;4.57;;
2724;SDS011;1370;52.596;13.112;2023-06-14T09:11:08;6.33;;;4.60;;
2724;SDS011;1370;52.596;13.112;2023-06-14T09:13:33;5.37;;;4.67;;
2724;SDS011;1370;52.596;13.112;2023-06-14T09:15:59;6.13;;;4.57;;
2724;SDS011;1370;52.596;13.112;2023-06-14T09:18:44;11.43;;;5.23;;
2724;SDS011;1370;52.596;13.112;2023-06-14T09:21:12;5.40;;;4.90;;
2724;SDS011;1370;52.596;13.112;2023-06-14T09:23:38;12.67;;;6.20;;
2724;SDS011;1370;52.596;13.112;2023-06-14T09:28:46;5.80;;;5.20;;
2724;SDS011;1370;52.596;13.112;2023-06-14T09:31:13;10.83;;;5.90;;
2724;SDS011;1370;52.596;13.112;2023-06-14T09:33:47;13.93;;;5.80;;
2724;SDS011;1370;52.596;13.112;2023-06-14T09:36:17;7.40;;;5.03;;
2724;SDS011;1370;52.596;13.112;2023-06-14T09:38:51;8.00;;;4.37;;
2724;SDS011;1370;52.596;13.112;2023-06-14T09:41:30;5.60;;;5.03;;
2724;SDS011;1370;52.596;13.112;2023-06-14T09:43:57;8.43;;;4.80;;
2724;SDS011;1370;52.596;13.112;2023-06-14T09:46:25;5.47;;;5.07;;
2724;SDS011;1370;52.596;13.112;2023-06-14T09:48:51;6.03;;;4.83;;
2724;SDS011;1370;52.596;13.112;2023-06-14T09:51:17;7.70;;;5.80;;
2724;SDS011;1370;52.596;13.112;2023-06-14T09:53:43;7.40;;;5.10;;
2724;SDS011;1370;52.596;13.112;2023-06-14T09:56:09;11.40;;;4.87;;
2724;SDS011;1370;52.596;13.112;2023-06-14T09:58:35;6.70;;;4.73;;
2724;SDS011;1370;52.596;13.112;2023-06-14T10:01:02;5.40;;;4.63;;
2724;SDS011;1370;52.596;13.112;2023-06-14T10:03:28;4.90;;;4.50;;
2724;SDS011;1370;52.596;13.112;2023-06-14T10:05:55;7.83;;;5.13;;
2724;SDS011;1370;52.596;13.112;2023-06-14T10:08:23;8.30;;;5.67;;
2724;SDS011;1370;52.596;13.112;2023-06-14T10:10:51;11.73;;;5.17;;
2724;SDS011;1370;52.596;13.112;2023-06-14T10:13:16;7.80;;;5.27;;
2724;SDS011;1370;52.596;13.112;2023-06-14T10:15:57;5.63;;;5.13;;
2724;SDS011;1370;52.596;13.112;2023-06-14T10:18:33;6.43;;;5.83;;
2724;SDS011;1370;52.596;13.112;2023-06-14T10:21:05;5.20;;;4.70;;
2724;SDS011;1370;52.596;13.112;2023-06-14T10:23:43;6.00;;;4.93;;
2724;SDS011;1370;52.596;13.112;2023-06-14T10:26:13;8.63;;;4.60;;
2724;SDS011;1370;52.596;13.112;2023-06-14T10:28:42;7.00;;;5.20;;
2724;SDS011;1370;52.596;13.112;2023-06-14T10:31:21;6.17;;;4.63;;
2724;SDS011;1370;52.596;13.112;2023-06-14T10:33:49;9.33;;;5.00;;
2724;SDS011;1370;52.596;13.112;2023-06-14T10:36:24;13.63;;;5.00;;
2724;SDS011;1370;52.596;13.112;2023-06-14T10:38:57;10.60;;;5.40;;
2724;SDS011;1370;52.596;13.112;2023-06-14T10:41:38;7.13;;;5.40;;
2724;SDS011;1370;52.596;13.112;2023-06-14T10:44:10;11.20;;;5.50;;
2724;SDS011;1370;52.596;13.112;2023-06-14T10:46:55;5.30;;;4.87;;
2724;SDS011;1370;52.596;13.112;2023-06-14T10:49:38;8.20;;;5.23;;
2724;SDS011;1370;52.596;13.112;2023-06-14T10:52:17;8.73;;;5.63;;
2724;SDS011;1370;52.596;13.112;2023-06-14T10:57:31;6.17;;;5.03;;
2724;SDS011;1370;52.596;13.112;2023-06-14T10:59:58;10.70;;;5.43;;
2724;SDS011;1370;52.596;13.112;2023-06-14T11:05:28;11.10;;;5.13;;
2724;SDS011;1370;52.596;13.112;2023-06-14T11:10:38;6.90;;;5.43;;
2724;SDS011;1370;52.596;13.112;2023-06-14T11:13:07;5.07;;;4.40;;
2724;SDS011;1370;52.596;13.112;2023-06-14T11:15:33;7.07;;;5.47;;
2724;SDS011;1370;52.596;13.112;2023-06-14T11:18:01;10.50;;;4.60;;
2724;SDS011;1370;52.596;13.112;2023-06-14T11:20:29;5.50;;;4.50;;
2724;SDS011;1370;52.596;13.112;2023-06-14T11:22:56;10.27;;;4.97;;
2724;SDS011;1370;52.596;13.112;2023-06-14T11:25:21;5.67;;;4.67;;
2724;SDS011;1370;52.596;13.112;2023-06-14T11:27:48;7.10;;;4.60;;
2724;SDS011;1370;52.596;13.112;2023-06-14T11:30:14;11.33;;;5.20;;
2724;SDS011;1370;52.596;13.112;2023-06-14T11:32:40;7.73;;;4.37;;
2724;SDS011;1370;52.596;13.112;2023-06-14T11:35:06;5.20;;;4.40;;
2724;SDS011;1370;52.596;13.112;2023-06-14T11:37:31;5.80;;;4.87;;
2724;SDS011;1370;52.596;13.112;2023-06-14T11:40:00;6.47;;;5.00;;
2724;SDS011;1370;52.596;13.112;2023-06-14T11:42:29;10.63;;;5.10;;
2724;SDS011;1370;52.596;13.112;2023-06-14T11:44:54;6.13;;;4.73;;
2724;SDS011;1370;52.596;13.112;2023-06-14T11:47:20;12.03;;;5.37;;
2724;SDS011;1370;52.596;13.112;2023-06-14T11:49:46;5.17;;;4.10;;
2724;SDS011;1370;52.596;13.112;2023-06-14T11:52:13;5.63;;;4.17;;
2724;SDS011;1370;52.596;13.112;2023-06-14T11:54:39;5.70;;;4.93;;
2724;SDS011;1370;52.596;13.112;2023-06-14T11:57:08;12.83;;;5.20;;
2724;SDS011;1370;52.596;13.112;2023-06-14T11:59:40;9.60;;;4.93;;
2724;SDS011;1370;52.596;13.112;2023-06-14T12:02:05;9.57;;;5.30;;
2724;SDS011;1370;52.596;13.112;2023-06-14T12:04:31;6.07;;;4.90;;
2724;SDS011;1370;52.596;13.112;2023-06-14T12:07:18;4.30;;;3.90;;
2724;SDS011;1370;52.596;13.112;2023-06-14T12:12:20;12.60;;;5.10;;
2724;SDS011;1370;52.596;13.112;2023-06-14T12:14:46;5.30;;;4.17;;
2724;SDS011;1370;52.596;13.112;2023-06-14T12:17:12;4.77;;;4.27;;
2724;SDS011;1370;52.596;13.112;2023-06-14T12:19:44;7.23;;;4.30;;
2724;SDS011;1370;52.596;13.112;2023-06-14T12:22:11;5.47;;;4.10;;
2724;SDS011;1370;52.596;13.112;2023-06-14T12:24:38;6.47;;;3.77;;
2724;SDS011;1370;52.596;13.112;2023-06-14T12:27:04;6.80;;;4.50;;
2724;SDS011;1370;52.596;13.112;2023-06-14T12:29:30;7.90;;;4.50;;
2724;SDS011;1370;52.596;13.112;2023-06-14T12:31:57;4.37;;;4.07;;
2724;SDS011;1370;52.596;13.112;2023-06-14T12:34:23;4.93;;;4.47;;
2724;SDS011;1370;52.596;13.112;2023-06-14T12:36:49;5.73;;;4.63;;
2724;SDS011;1370;52.596;13.112;2023-06-14T12:39:15;5.87;;;4.17;;
2724;SDS011;1370;52.596;13.112;2023-06-14T12:41:41;8.03;;;4.30;;
2724;SDS011;1370;52.596;13.112;2023-06-14T12:44:06;4.30;;;3.90;;
2724;SDS011;1370;52.596;13.112;2023-06-14T12:46:32;5.53;;;4.20;;
2724;SDS011;1370;52.596;13.112;2023-06-14T12:48:58;10.93;;;4.37;;
2724;SDS011;1370;52.596;13.112;2023-06-14T12:51:23;3.77;;;3.47;;
2724;SDS011;1370;52.596;13.112;2023-06-14T12:53:50;9.53;;;6.90;;
2724;SDS011;1370;52.596;13.112;2023-06-14T12:56:15;9.60;;;4.47;;
2724;SDS011;1370;52.596;13.112;2023-06-14T12:58:42;5.10;;;3.70;;
2724;SDS011;1370;52.596;13.112;2023-06-14T13:01:07;5.47;;;4.63;;
2724;SDS011;1370;52.596;13.112;2023-06-14T13:03:32;9.47;;;5.00;;
2724;SDS011;1370;52.596;13.112;2023-06-14T13:05:59;8.70;;;4.03;;
2724;SDS011;1370;52.596;13.112;2023-06-14T13:08:24;7.10;;;3.97;;
2724;SDS011;1370;52.596;13.112;2023-06-14T13:10:50;7.93;;;3.80;;
2724;SDS011;1370;52.596;13.112;2023-06-14T13:13:15;5.80;;;3.47;;
2724;SDS011;1370;52.596;13.112;2023-06-14T13:15:40;7.40;;;4.27;;
2724;SDS011;1370;52.596;13.112;2023-06-14T13:18:05;7.50;;;4.07;;
2724;SDS011;1370;52.596;13.112;2023-06-14T13:20:31;15.40;;;4.27;;
2724;SDS011;1370;52.596;13.112;2023-06-14T13:22:56;5.10;;;4.60;;
2724;SDS011;1370;52.596;13.112;2023-06-14T13:25:22;10.30;;;4.07;;
2724;SDS011;1370;52.596;13.112;2023-06-14T13:27:47;11.53;;;4.23;;
2724;SDS011;1370;52.596;13.112;2023-06-14T13:30:12;6.37;;;3.87;;
2724;SDS011;1370;52.596;13.112;2023-06-14T13:32:38;5.40;;;4.90;;
2724;SDS011;1370;52.596;13.112;2023-06-14T13:35:04;4.60;;;4.20;;
2724;SDS011;1370;52.596;13.112;2023-06-14T13:37:29;4.40;;;4.00;;
2724;SDS011;1370;52.596;13.112;2023-06-14T13:39:55;11.23;;;4.40;;
2724;SDS011;1370;52.596;13.112;2023-06-14T13:42:20;6.33;;;4.53;;
2724;SDS011;1370;52.596;13.112;2023-06-14T13:44:45;7.47;;;4.73;;
2724;SDS011;1370;52.596;13.112;2023-06-14T13:47:11;5.27;;;4.00;;
2724;SDS011;1370;52.596;13.112;2023-06-14T13:49:36;8.67;;;4.13;;
2724;SDS011;1370;52.596;13.112;2023-06-14T13:52:01;7.77;;;3.67;;
2724;SDS011;1370;52.596;13.112;2023-06-14T13:54:27;7.20;;;4.03;;
2724;SDS011;1370;52.596;13.112;2023-06-14T13:56:53;7.13;;;3.90;;
2724;SDS011;1370;52.596;13.112;2023-06-14T13:59:18;5.83;;;4.00;;
2724;SDS011;1370;52.596;13.112;2023-06-14T14:01:43;8.17;;;4.40;;
2724;SDS011;1370;52.596;13.112;2023-06-14T14:04:09;6.37;;;4.53;;
2724;SDS011;1370;52.596;13.112;2023-06-14T14:06:34;16.00;;;5.80;;
2724;SDS011;1370;52.596;13.112;2023-06-14T14:09:00;9.37;;;6.37;;
2724;SDS011;1370;52.596;13.112;2023-06-14T14:11:25;5.30;;;4.60;;
2724;SDS011;1370;52.596;13.112;2023-06-14T14:13:50;8.30;;;5.00;;
2724;SDS011;1370;52.596;13.112;2023-06-14T14:16:16;5.23;;;4.20;;
2724;SDS011;1370;52.596;13.112;2023-06-14T14:18:41;6.00;;;4.43;;
2724;SDS011;1370;52.596;13.112;2023-06-14T14:21:06;8.87;;;4.67;;
2724;SDS011;1370;52.596;13.112;2023-06-14T14:23:32;7.60;;;4.53;;
2724;SDS011;1370;52.596;13.112;2023-06-14T14:25:57;10.87;;;4.10;;
2724;SDS011;1370;52.596;13.112;2023-06-14T14:28:22;4.37;;;3.97;;
2724;SDS011;1370;52.596;13.112;2023-06-14T14:30:48;7.90;;;3.93;;
2724;SDS011;1370;52.596;13.112;2023-06-14T14:33:13;6.07;;;5.00;;
2724;SDS011;1370;52.596;13.112;2023-06-14T14:35:44;5.17;;;3.80;;
2724;SDS011;1370;52.596;13.112;2023-06-14T14:38:13;9.17;;;3.93;;
2724;SDS011;1370;52.596;13.112;2023-06-14T14:40:40;8.10;;;4.10;;
2724;SDS011;1370;52.596;13.112;2023-06-14T14:43:05;8.80;;;5.60;;
2724;SDS011;1370;52.596;13.112;2023-06-14T14:45:31;5.00;;;4.50;;
2724;SDS011;1370;52.596;13.112;2023-06-14T14:47:56;4.43;;;4.03;;
2724;SDS011;1370;52.596;13.112;2023-06-14T14:50:21;7.03;;;4.13;;
2724;SDS011;1370;52.596;13.112;2023-06-14T14:52:47;4.93;;;4.53;;
2724;SDS011;1370;52.596;13.112;2023-06-14T14:55:12;5.03;;;3.40;;
2724;SDS011;1370;52.596;13.112;2023-06-14T14:57:38;6.57;;;4.27;;
2724;SDS011;1370;52.596;13.112;2023-06-14T15:00:04;8.43;;;3.50;;
2724;SDS011;1370;52.596;13.112;2023-06-14T15:02:30;5.00;;;3.80;;
2724;SDS011;1370;52.596;13.112;2023-06-14T15:04:56;5.53;;;3.77;;
2724;SDS011;1370;52.596;13.112;2023-06-14T15:07:25;8.90;;;4.17;;